createdAt,value
2022-10-17T00:01:13.892Z,4.70
2022-10-17T00:03:42.353Z,7.83
2022-10-17T00:06:12.945Z,6.63
2022-10-17T00:08:41.550Z,5.17
2022-10-17T00:11:29.930Z,8.50
2022-10-17T00:13:58.925Z,4.87
2022-10-17T00:16:33.842Z,3.23
2022-10-17T00:19:02.402Z,8.17
2022-10-17T00:21:30.639Z,6.47
2022-10-17T00:23:59.946Z,7.17
2022-10-17T00:26:29.885Z,9.07
2022-10-17T00:28:59.604Z,9.87
2022-10-17T00:31:28.714Z,7.77
2022-10-17T00:33:57.080Z,7.40
2022-10-17T00:36:26.876Z,7.73
2022-10-17T00:38:57.274Z,7.60
2022-10-17T00:41:28.401Z,9.73
2022-10-17T00:44:01.902Z,5.93
2022-10-17T00:46:39.311Z,5.43
2022-10-17T00:49:11.563Z,4.50
2022-10-17T00:51:43.109Z,6.20
2022-10-17T00:54:12.177Z,6.23
2022-10-17T00:56:40.852Z,3.57
2022-10-17T00:59:09.838Z,4.67
2022-10-17T01:01:43.081Z,5.50
2022-10-17T01:04:11.839Z,4.90
2022-10-17T01:06:41.038Z,5.27
2022-10-17T01:09:09.680Z,5.03
2022-10-17T01:11:46.014Z,4.53
2022-10-17T01:14:30.598Z,6.77
2022-10-17T01:17:04.880Z,2.97
2022-10-17T01:19:49.165Z,5.43
2022-10-17T01:22:33.184Z,6.03
2022-10-17T01:25:11.701Z,3.47
2022-10-17T01:28:21.345Z,8.97
2022-10-17T01:31:43.764Z,6.10
2022-10-17T01:34:23.041Z,4.03
2022-10-17T01:37:15.217Z,3.47
2022-10-17T01:39:47.927Z,4.17
2022-10-17T01:42:22.431Z,3.87
2022-10-17T01:44:55.941Z,3.80
2022-10-17T01:47:29.955Z,6.33
2022-10-17T01:50:02.350Z,3.60
2022-10-17T01:52:41.101Z,4.17
2022-10-17T01:55:29.751Z,5.27
2022-10-17T01:58:01.783Z,3.70
2022-10-17T02:00:30.134Z,5.33
2022-10-17T02:03:04.002Z,6.40
2022-10-17T02:05:34.329Z,4.23
2022-10-17T02:08:03.250Z,6.10
2022-10-17T02:10:56.057Z,7.33
2022-10-17T02:13:44.137Z,22.37
2022-10-17T02:16:47.572Z,23.80
2022-10-17T02:19:22.036Z,14.57
2022-10-17T02:22:02.166Z,25.47
2022-10-17T02:24:41.204Z,22.03
2022-10-17T02:27:34.622Z,12.10
2022-10-17T02:30:11.223Z,8.23
2022-10-17T02:32:49.519Z,9.77
2022-10-17T02:35:22.073Z,8.47
2022-10-17T02:37:50.405Z,8.07
2022-10-17T02:40:20.120Z,7.87
2022-10-17T02:42:48.485Z,7.67
2022-10-17T02:45:16.982Z,6.10
2022-10-17T02:48:13.922Z,8.17
2022-10-17T02:51:07.349Z,6.57
2022-10-17T02:53:45.025Z,5.07
2022-10-17T02:56:17.296Z,5.73
2022-10-17T02:58:52.457Z,7.63
2022-10-17T03:01:20.852Z,4.37
2022-10-17T03:03:49.235Z,6.47
2022-10-17T03:06:18.129Z,5.67
2022-10-17T03:08:47.643Z,4.83
2022-10-17T03:11:16.795Z,5.47
2022-10-17T03:13:45.404Z,4.57
2022-10-17T03:16:14.418Z,5.33
2022-10-17T03:18:45.395Z,4.60
2022-10-17T03:21:17.044Z,5.83
2022-10-17T03:23:45.371Z,5.13
2022-10-17T03:26:15.759Z,4.07
2022-10-17T03:28:44.297Z,5.13
2022-10-17T03:31:16.479Z,3.20
2022-10-17T03:33:46.797Z,3.80
2022-10-17T03:36:16.798Z,2.90
2022-10-17T03:38:46.641Z,4.13
2022-10-17T03:41:15.102Z,3.83
2022-10-17T03:43:43.872Z,5.23
2022-10-17T03:46:12.340Z,4.27
2022-10-17T03:48:41.125Z,5.37
2022-10-17T03:51:10.148Z,7.63
2022-10-17T03:53:46.816Z,5.40
2022-10-17T03:56:22.847Z,5.07
2022-10-17T03:59:02.682Z,4.93
2022-10-17T04:01:33.557Z,5.07
2022-10-17T04:04:02.052Z,8.50
2022-10-17T04:06:33.450Z,6.60
2022-10-17T04:09:02.224Z,10.60
2022-10-17T04:11:40.417Z,9.17
2022-10-17T04:14:11.399Z,9.97
2022-10-17T04:16:42.020Z,10.00
2022-10-17T04:19:16.130Z,9.03
2022-10-17T04:21:47.722Z,7.33
2022-10-17T04:24:16.915Z,5.67
2022-10-17T04:26:50.465Z,7.90
2022-10-17T04:29:20.264Z,5.57
2022-10-17T04:31:52.734Z,5.43
2022-10-17T04:34:31.633Z,7.73
2022-10-17T04:37:00.072Z,7.20
2022-10-17T04:39:30.436Z,4.90
2022-10-17T04:41:59.430Z,5.27
2022-10-17T04:44:31.187Z,6.20
2022-10-17T04:47:00.397Z,4.20
2022-10-17T04:49:28.981Z,7.43
2022-10-17T04:52:04.080Z,73.67
2022-10-17T04:54:39.157Z,15.73
2022-10-17T04:57:10.654Z,9.43
2022-10-17T04:59:41.188Z,6.77
2022-10-17T05:02:38.845Z,7.07
2022-10-17T05:05:08.694Z,9.40
2022-10-17T05:07:40.933Z,7.63
2022-10-17T05:10:14.157Z,11.03
2022-10-17T05:12:50.591Z,10.50
2022-10-17T05:15:20.757Z,11.63
2022-10-17T05:17:49.336Z,11.13
2022-10-17T05:20:18.093Z,10.23
2022-10-17T05:22:46.691Z,9.03
2022-10-17T05:25:15.346Z,9.73
2022-10-17T05:27:44.375Z,8.37
2022-10-17T05:30:12.981Z,7.07
2022-10-17T05:32:42.372Z,7.83
2022-10-17T05:35:11.198Z,11.43
2022-10-17T05:37:40.499Z,10.70
2022-10-17T05:40:10.118Z,15.40
2022-10-17T05:45:12.489Z,13.67
2022-10-17T05:47:41.243Z,11.20
2022-10-17T05:50:10.773Z,11.50
2022-10-17T05:52:57.559Z,13.37
2022-10-17T05:55:26.088Z,15.67
2022-10-17T05:57:55.282Z,12.97
2022-10-17T06:00:26.098Z,12.20
2022-10-17T06:03:00.553Z,13.77
2022-10-17T06:05:29.207Z,12.30
2022-10-17T06:08:01.117Z,14.20
2022-10-17T06:10:33.948Z,16.80
2022-10-17T06:13:04.131Z,18.60
2022-10-17T06:15:32.630Z,19.93
2022-10-17T06:18:06.502Z,26.00
2022-10-17T06:20:35.045Z,22.70
2022-10-17T06:23:04.405Z,21.55
2022-10-17T06:25:53.301Z,22.55
2022-10-17T06:28:21.730Z,20.42
2022-10-17T06:30:50.328Z,18.20
2022-10-17T06:33:18.721Z,18.70
2022-10-17T06:35:56.652Z,15.93
2022-10-17T06:38:26.719Z,9.50
2022-10-17T06:41:08.596Z,7.90
2022-10-17T06:43:38.308Z,8.93
2022-10-17T06:46:30.166Z,9.15
2022-10-17T06:49:06.862Z,9.20
2022-10-17T06:51:49.311Z,8.50
2022-10-17T06:54:20.753Z,8.65
2022-10-17T06:57:07.438Z,18.08
2022-10-17T06:59:59.942Z,10.38
2022-10-17T07:02:45.281Z,7.82
2022-10-17T07:05:14.323Z,7.45
2022-10-17T07:07:44.773Z,7.47
2022-10-17T07:10:15.578Z,10.00
2022-10-17T07:12:46.118Z,7.45
2022-10-17T07:15:16.871Z,7.70
2022-10-17T07:17:51.088Z,10.45
2022-10-17T07:20:20.691Z,7.95
2022-10-17T07:22:49.280Z,9.25
2022-10-17T07:25:17.965Z,9.20
2022-10-17T07:27:52.364Z,8.38
2022-10-17T07:30:22.451Z,9.93
2022-10-17T07:33:08.358Z,6.28
2022-10-17T07:35:41.269Z,7.97
2022-10-17T07:38:10.199Z,5.82
2022-10-17T07:40:38.872Z,7.10
2022-10-17T07:43:07.549Z,4.53
2022-10-17T07:45:36.765Z,4.95
2022-10-17T07:48:05.903Z,5.07
2022-10-17T07:50:34.939Z,8.27
2022-10-17T07:53:03.398Z,5.47
2022-10-17T07:55:31.779Z,6.53
2022-10-17T07:58:01.150Z,5.20
2022-10-17T08:00:29.558Z,7.53
2022-10-17T08:02:57.976Z,6.20
2022-10-17T08:05:26.523Z,7.20
2022-10-17T08:07:55.511Z,5.78
2022-10-17T08:10:28.307Z,10.95
2022-10-17T08:12:59.670Z,6.13
2022-10-17T08:15:31.787Z,6.68
2022-10-17T08:18:00.931Z,7.22
2022-10-17T08:20:29.433Z,6.60
2022-10-17T08:22:57.763Z,5.68
2022-10-17T08:25:27.966Z,6.63
2022-10-17T08:27:56.715Z,5.80
2022-10-17T08:30:25.778Z,5.55
2022-10-17T08:32:56.403Z,4.53
2022-10-17T08:35:25.136Z,6.97
2022-10-17T08:37:53.736Z,3.92
2022-10-17T08:40:25.750Z,3.83
2022-10-17T08:43:25.824Z,5.75
2022-10-17T08:45:56.961Z,4.63
2022-10-17T08:48:26.250Z,4.20
2022-10-17T08:51:11.490Z,3.45
2022-10-17T08:54:00.891Z,4.63
2022-10-17T08:56:50.286Z,3.60
2022-10-17T08:59:24.294Z,3.43
2022-10-17T09:02:14.402Z,8.40
2022-10-17T09:04:45.624Z,6.57
2022-10-17T09:07:26.577Z,5.00
2022-10-17T09:10:21.253Z,4.97
2022-10-17T09:13:46.551Z,3.27
2022-10-17T09:16:33.352Z,4.50
2022-10-17T09:19:09.644Z,4.00
2022-10-17T09:21:38.201Z,3.50
2022-10-17T09:24:15.821Z,2.77
2022-10-17T09:26:46.138Z,3.03
2022-10-17T09:29:24.730Z,5.10
2022-10-17T09:32:01.742Z,2.80
2022-10-17T09:34:31.589Z,3.70
2022-10-17T09:37:00.833Z,3.93
2022-10-17T09:39:33.293Z,3.00
2022-10-17T09:42:01.973Z,2.87
2022-10-17T09:44:33.973Z,3.55
2022-10-17T09:47:38.682Z,3.83
2022-10-17T09:50:29.301Z,2.80
2022-10-17T09:53:03.109Z,3.60
2022-10-17T09:55:46.120Z,3.60
2022-10-17T09:58:14.863Z,3.20
2022-10-17T10:00:45.676Z,3.53
2022-10-17T10:03:20.216Z,2.88
2022-10-17T10:06:18.798Z,3.53
2022-10-17T10:08:54.075Z,3.50
2022-10-17T10:11:46.661Z,3.08
2022-10-17T10:14:23.488Z,2.38
2022-10-17T10:16:53.975Z,5.55
2022-10-17T10:19:37.308Z,2.53
2022-10-17T10:22:08.983Z,3.92
2022-10-17T10:24:37.694Z,3.60
2022-10-17T10:27:06.053Z,4.18
2022-10-17T10:29:39.131Z,3.38
2022-10-17T10:32:32.526Z,2.35
2022-10-17T10:35:01.049Z,2.92
2022-10-17T10:37:33.120Z,3.75
2022-10-17T10:40:04.439Z,2.92
2022-10-17T10:42:39.753Z,2.38
2022-10-17T10:45:19.150Z,1.92
2022-10-17T10:47:59.096Z,2.10
2022-10-17T10:50:33.050Z,2.40
2022-10-17T10:53:22.822Z,3.58
2022-10-17T10:56:00.035Z,5.10
2022-10-17T10:58:42.132Z,3.03
2022-10-17T11:01:33.114Z,2.40
2022-10-17T11:04:27.163Z,2.35
2022-10-17T11:07:43.554Z,2.60
2022-10-17T11:10:12.208Z,2.47
2022-10-17T11:12:47.996Z,2.42
2022-10-17T11:15:43.209Z,3.60
2022-10-17T11:18:32.975Z,1.73
2022-10-17T11:21:05.516Z,3.20
2022-10-17T11:23:49.138Z,2.20
2022-10-17T11:26:27.099Z,2.30
2022-10-17T11:29:00.812Z,1.80
2022-10-17T11:31:39.481Z,2.55
2022-10-17T11:34:08.928Z,2.28
2022-10-17T11:36:39.930Z,1.95
2022-10-17T11:39:09.429Z,3.78
2022-10-17T11:41:46.976Z,2.95
2022-10-17T11:44:39.970Z,2.20
2022-10-17T11:47:22.581Z,2.15
2022-10-17T11:49:52.868Z,2.10
2022-10-17T11:52:56.009Z,2.17
2022-10-17T11:55:36.100Z,3.78
2022-10-17T11:58:04.464Z,2.05
2022-10-17T12:01:06.904Z,1.55
2022-10-17T12:04:00.160Z,2.67
2022-10-17T12:06:55.586Z,1.73
2022-10-17T12:09:28.061Z,2.92
2022-10-17T12:12:02.851Z,1.80
2022-10-17T12:14:34.264Z,2.72
2022-10-17T12:17:02.915Z,2.50
2022-10-17T12:19:35.832Z,1.85
2022-10-17T12:22:13.303Z,3.15
2022-10-17T12:24:44.420Z,4.35
2022-10-17T12:27:47.113Z,1.88
2022-10-17T12:30:18.033Z,1.83
2022-10-17T12:33:07.186Z,1.65
2022-10-17T12:35:37.862Z,2.83
2022-10-17T12:38:19.245Z,2.20
2022-10-17T12:40:50.717Z,2.85
2022-10-17T12:43:19.115Z,1.63
2022-10-17T12:45:54.491Z,2.28
2022-10-17T12:48:35.707Z,1.67
2022-10-17T12:51:35.285Z,1.88
2022-10-17T12:54:15.225Z,2.45
2022-10-17T12:56:45.943Z,1.92
2022-10-17T12:59:22.949Z,2.08
2022-10-17T13:01:53.673Z,2.40
2022-10-17T13:04:22.829Z,1.67
2022-10-17T13:06:55.934Z,1.58
2022-10-17T13:09:27.333Z,1.50
2022-10-17T13:11:57.753Z,1.70
2022-10-17T13:14:26.712Z,3.50
2022-10-17T13:16:56.127Z,2.00
2022-10-17T13:19:26.955Z,1.42
2022-10-17T13:22:06.523Z,2.47
2022-10-17T13:24:40.010Z,1.85
2022-10-17T13:27:30.459Z,1.83
2022-10-17T13:30:00.726Z,1.88
2022-10-17T13:32:40.093Z,2.00
2022-10-17T13:35:13.532Z,1.73
2022-10-17T13:37:43.481Z,1.92
2022-10-17T13:40:49.938Z,1.77
2022-10-17T13:43:24.551Z,1.38
2022-10-17T13:46:02.312Z,1.50
2022-10-17T13:48:37.799Z,3.92
2022-10-17T13:51:10.338Z,2.38
2022-10-17T13:53:42.878Z,2.60
2022-10-17T13:56:27.309Z,6.00
2022-10-17T13:59:06.109Z,13.40
2022-10-17T14:01:34.596Z,18.88
2022-10-17T14:04:09.264Z,11.63
2022-10-17T14:06:49.368Z,5.90
2022-10-17T14:09:22.976Z,2.45
2022-10-17T14:12:19.377Z,2.00
2022-10-17T14:15:09.716Z,1.70
2022-10-17T14:17:39.156Z,2.47
2022-10-17T14:20:40.776Z,2.78
2022-10-17T14:23:22.552Z,2.40
2022-10-17T14:25:46.495Z,2.17
2022-10-17T14:28:16.208Z,2.00
2022-10-17T14:30:57.871Z,2.15
2022-10-17T14:33:31.095Z,1.67
2022-10-17T14:36:01.317Z,1.98
2022-10-17T14:38:30.215Z,3.85
2022-10-17T14:41:43.261Z,2.03
2022-10-17T14:44:20.252Z,2.10
2022-10-17T14:46:54.812Z,2.50
2022-10-17T14:49:39.724Z,2.65
2022-10-17T14:52:18.567Z,1.77
2022-10-17T14:54:48.994Z,2.25
2022-10-17T14:57:29.778Z,1.90
2022-10-17T14:59:59.022Z,2.63
2022-10-17T15:02:30.249Z,3.37
2022-10-17T15:04:59.088Z,1.85
2022-10-17T15:07:28.415Z,2.15
2022-10-17T15:09:57.438Z,1.90
2022-10-17T15:12:26.402Z,3.50
2022-10-17T15:14:54.995Z,4.07
2022-10-17T15:17:31.596Z,2.43
2022-10-17T15:20:01.290Z,2.65
2022-10-17T15:22:31.955Z,4.53
2022-10-17T15:25:00.697Z,3.30
2022-10-17T15:27:33.183Z,3.33
2022-10-17T15:30:04.940Z,3.17
2022-10-17T15:32:36.502Z,5.60
2022-10-17T15:35:05.079Z,2.10
2022-10-17T15:37:34.129Z,2.90
2022-10-17T15:40:04.293Z,3.13
2022-10-17T15:42:32.807Z,23.30
2022-10-17T15:45:02.968Z,3.13
2022-10-17T15:47:36.469Z,4.33
2022-10-17T15:50:07.894Z,2.37
2022-10-17T15:52:37.125Z,2.80
2022-10-17T15:55:09.517Z,3.20
2022-10-17T15:57:40.570Z,3.23
2022-10-17T16:00:20.485Z,3.37
2022-10-17T16:02:50.968Z,4.63
2022-10-17T16:05:29.315Z,6.00
2022-10-17T16:07:59.406Z,5.00
2022-10-17T16:10:28.478Z,5.10
2022-10-17T16:12:57.607Z,5.57
2022-10-17T16:15:28.263Z,4.17
2022-10-17T16:18:00.443Z,4.20
2022-10-17T16:20:32.598Z,4.50
2022-10-17T16:23:04.850Z,7.50
2022-10-17T16:25:41.163Z,6.47
2022-10-17T16:28:10.005Z,5.23
2022-10-17T16:30:43.850Z,12.33
2022-10-17T16:33:13.552Z,13.47
2022-10-17T16:35:43.269Z,11.37
2022-10-17T16:38:13.146Z,19.30
2022-10-17T16:40:44.111Z,13.00
2022-10-17T16:43:16.692Z,13.00
2022-10-17T16:45:45.571Z,8.37
2022-10-17T16:48:14.198Z,7.30
2022-10-17T16:50:46.162Z,11.73
2022-10-17T16:53:15.674Z,6.67
2022-10-17T16:55:48.196Z,5.30
2022-10-17T16:58:18.424Z,7.10
2022-10-17T17:00:52.227Z,11.73
2022-10-17T17:03:21.410Z,11.17
2022-10-17T17:05:53.258Z,16.67
2022-10-17T17:08:24.545Z,17.30
2022-10-17T17:10:55.688Z,13.60
2022-10-17T17:13:24.353Z,16.70
2022-10-17T17:15:55.334Z,17.57
2022-10-17T17:18:24.880Z,14.33
2022-10-17T17:20:58.995Z,11.17
2022-10-17T17:23:33.653Z,9.23
2022-10-17T17:26:06.839Z,5.23
2022-10-17T17:28:37.535Z,5.40
2022-10-17T17:31:19.358Z,5.23
2022-10-17T17:33:49.316Z,5.50
2022-10-17T17:36:26.436Z,9.13
2022-10-17T17:39:04.414Z,10.57
2022-10-17T17:44:23.816Z,10.50
2022-10-17T17:46:56.651Z,9.73
2022-10-17T17:49:34.888Z,13.60
2022-10-17T17:52:14.413Z,14.97
2022-10-17T17:54:51.131Z,14.03
2022-10-17T17:57:33.287Z,13.60
2022-10-17T18:00:08.075Z,9.63
2022-10-17T18:02:44.574Z,14.20
2022-10-17T18:05:25.214Z,17.53
2022-10-17T18:08:18.123Z,14.23
2022-10-17T18:11:00.459Z,14.93
2022-10-17T18:13:34.335Z,8.73
2022-10-17T18:16:17.761Z,11.67
2022-10-17T18:18:56.140Z,8.23
2022-10-17T18:21:33.085Z,8.43
2022-10-17T18:24:05.906Z,11.27
2022-10-17T18:26:43.674Z,9.40
2022-10-17T18:29:26.064Z,9.73
2022-10-17T18:32:02.454Z,11.07
2022-10-17T18:34:40.419Z,13.80
2022-10-17T18:37:25.583Z,15.17
2022-10-17T18:39:57.753Z,17.83
2022-10-17T18:42:27.269Z,18.53
2022-10-17T18:45:00.187Z,14.63
2022-10-17T18:47:34.323Z,21.97
2022-10-17T18:50:04.786Z,16.27
2022-10-17T18:52:36.664Z,16.03
2022-10-17T18:55:08.507Z,13.77
2022-10-17T18:57:40.722Z,13.17
2022-10-17T19:00:19.714Z,12.77
2022-10-17T19:02:48.324Z,9.50
2022-10-17T19:05:17.357Z,11.63
2022-10-17T19:07:50.411Z,11.07
2022-10-17T19:10:19.217Z,9.00
2022-10-17T19:12:50.685Z,10.03
2022-10-17T19:15:23.823Z,10.43
2022-10-17T19:17:55.733Z,8.73
2022-10-17T19:20:36.294Z,8.37
2022-10-17T19:23:05.383Z,11.27
2022-10-17T19:25:34.316Z,7.80
2022-10-17T19:28:03.541Z,12.57
2022-10-17T19:30:33.373Z,10.63
2022-10-17T19:33:02.024Z,14.27
2022-10-17T19:35:32.036Z,9.50
2022-10-17T19:38:01.023Z,7.03
2022-10-17T19:40:30.233Z,10.20
2022-10-17T19:42:59.491Z,9.33
2022-10-17T19:45:28.381Z,9.43
2022-10-17T19:47:56.901Z,9.23
2022-10-17T19:50:26.389Z,10.20
2022-10-17T19:52:55.662Z,10.10
2022-10-17T19:55:24.205Z,10.47
2022-10-17T19:57:53.096Z,8.83
2022-10-17T20:00:26.381Z,8.53
2022-10-17T20:02:55.259Z,10.90
2022-10-17T20:05:27.298Z,7.00
2022-10-17T20:07:56.682Z,8.17
2022-10-17T20:10:25.923Z,7.27
2022-10-17T20:12:54.641Z,9.33
2022-10-17T20:15:23.082Z,10.43
2022-10-17T20:17:51.560Z,16.30
2022-10-17T20:20:20.361Z,12.27
2022-10-17T20:22:48.810Z,11.03
2022-10-17T20:25:20.507Z,13.03
2022-10-17T20:27:49.503Z,22.73
2022-10-17T20:30:20.355Z,15.90
2022-10-17T20:32:55.516Z,17.33
2022-10-17T20:35:24.903Z,15.03
2022-10-17T20:37:55.291Z,10.57
2022-10-17T20:40:40.206Z,8.13
2022-10-17T20:43:12.395Z,12.47
2022-10-17T20:45:50.777Z,10.17
2022-10-17T20:48:21.361Z,10.80
2022-10-17T20:50:49.903Z,7.53
2022-10-17T20:53:35.909Z,5.83
2022-10-17T20:56:12.600Z,6.97
2022-10-17T20:58:40.989Z,10.00
2022-10-17T21:01:09.976Z,6.93
2022-10-17T21:03:42.381Z,7.07
2022-10-17T21:06:14.480Z,7.33
2022-10-17T21:08:43.017Z,7.80
2022-10-17T21:11:13.499Z,9.27
2022-10-17T21:13:42.374Z,6.93
2022-10-17T21:16:16.591Z,8.20
2022-10-17T21:18:45.233Z,6.57
2022-10-17T21:21:21.716Z,7.23
2022-10-17T21:23:51.090Z,6.00
2022-10-17T21:26:19.769Z,5.30
2022-10-17T21:28:49.220Z,4.67
2022-10-17T21:31:20.522Z,4.77
2022-10-17T21:33:53.561Z,3.40
2022-10-17T21:36:22.519Z,4.00
2022-10-17T21:38:52.021Z,4.33
2022-10-17T21:41:21.988Z,6.37
2022-10-17T21:43:58.257Z,5.93
2022-10-17T21:46:26.829Z,5.53
2022-10-17T21:48:55.199Z,4.93
2022-10-17T21:51:25.129Z,4.33
2022-10-17T21:53:54.898Z,6.23
2022-10-17T21:56:25.174Z,3.97
2022-10-17T21:58:53.486Z,4.37
2022-10-17T22:01:26.632Z,8.20
2022-10-17T22:03:57.220Z,4.13
2022-10-17T22:06:42.764Z,3.03
2022-10-17T22:09:16.670Z,5.43
2022-10-17T22:11:47.167Z,2.53
2022-10-17T22:14:18.516Z,2.83
2022-10-17T22:16:47.175Z,2.70
2022-10-17T22:19:17.552Z,5.17
2022-10-17T22:21:45.906Z,8.83
2022-10-17T22:24:16.238Z,3.47
2022-10-17T22:26:45.635Z,4.33
2022-10-17T22:29:14.041Z,2.43
2022-10-17T22:31:43.581Z,2.63
2022-10-17T22:34:13.633Z,3.63
2022-10-17T22:36:42.012Z,3.33
2022-10-17T22:39:10.421Z,4.47
2022-10-17T22:41:38.785Z,3.37
2022-10-17T22:44:07.322Z,3.10
2022-10-17T22:46:35.554Z,4.13
2022-10-17T22:49:03.931Z,4.23
2022-10-17T22:51:32.237Z,3.63
2022-10-17T22:54:00.551Z,4.20
2022-10-17T22:56:30.041Z,3.63
2022-10-17T22:58:58.464Z,2.83
2022-10-17T23:01:26.927Z,3.57
2022-10-17T23:03:55.407Z,3.23
2022-10-17T23:06:24.421Z,4.17
2022-10-17T23:08:52.813Z,3.43
2022-10-17T23:11:21.717Z,4.93
2022-10-17T23:13:50.088Z,2.90
2022-10-17T23:16:18.612Z,2.30
2022-10-17T23:18:46.996Z,3.00
2022-10-17T23:21:15.780Z,3.53
2022-10-17T23:23:44.601Z,6.23
2022-10-17T23:26:14.498Z,2.33
2022-10-17T23:28:43.225Z,3.90
2022-10-17T23:31:15.583Z,2.73
2022-10-17T23:33:45.318Z,5.50
2022-10-17T23:36:15.676Z,4.97
2022-10-17T23:38:44.804Z,2.77
2022-10-17T23:41:13.444Z,2.50
2022-10-17T23:43:41.837Z,2.43
2022-10-17T23:46:10.324Z,7.33
2022-10-17T23:48:39.921Z,3.93
2022-10-17T23:51:09.059Z,3.77
2022-10-17T23:53:38.179Z,4.43
2022-10-17T23:56:07.002Z,5.53
2022-10-17T23:58:36.663Z,2.73
